الصفحة الرئيسية
METAR-TAF:

METAR-TAF

مطار :

مطار الكويت الدولي

مدينة الكويت, الكويت

دائرة عرض: 29-13N, خط طول: 047-59E, ارتفاع: 55 متر

مراقبة الطقس الحالي

تاريخ ووقت الإصدار 35 دقيقة قبل الساعة 08:00UTC
ريح 12 عقدة من الشمال
درجة الحرارة 29°درجة مئوية
الرطوبة 40%
ضغط 1010 hPa
الرؤية 10 كم أو أكثر
غيوم قليلة على ارتفاع 3000 قدم

METAR: OKBK 190800Z 35012KT 9999 FEW030 29/14 Q1010 NOSIG

زمن: 11:35 (08:35 UTC)

توقعات

تاريخ ووقت الإصدار 3ساعات و 50 دقيقة قبل الساعة 04:45UTC
التوقعات صالحة من19 الساعة 06 UTC إلى 20 الساعة 12 UTC
ريح 8 عقدة من الشمال/الشمال الغربي تتزايد حتى 18 عقدة
الرؤية: 7000 متر

TAF: OKBK 190445Z 1906/2012 34008G18KT 7000 NSC

أرصاد الطقس والتوقعات من أكثر من 4000 مطار (تقارير الطقس للمطار METAR والتنبؤ بالطقس بالمطارTAF).

المحطات المتاحة هي النقط الصفراء والحمراء على الخريطة.

حرك المؤشر فوق النقطة لمعرفة اسم المحطة.

ثم انقر لمعرفة أرصاد وتوقعات الطقس.

لتغيير الخارطة: اضغط على الأزرار الخضراء مع رمز الصليب الأسود للتكبير. على الزر الأخضر مع شرطة للتصغير، أو على الأسهم الخضراء للخرائط المجاورة.


METAR-TAF: